createdAt,value
2018-11-06T00:00:32.300Z,90.00
2018-11-06T00:04:12.582Z,89.40
2018-11-06T00:06:45.228Z,90.30
2018-11-06T00:09:17.555Z,91.10
2018-11-06T00:11:49.866Z,91.20
2018-11-06T00:14:22.554Z,91.20
2018-11-06T00:16:54.984Z,91.00
2018-11-06T00:19:28.065Z,91.30
2018-11-06T00:22:00.545Z,90.90
2018-11-06T00:24:32.828Z,91.00
2018-11-06T00:27:05.068Z,91.30
2018-11-06T00:29:37.648Z,91.70
2018-11-06T00:32:09.928Z,91.80
2018-11-06T00:34:43.379Z,91.60
2018-11-06T00:37:15.494Z,91.80
2018-11-06T00:39:47.823Z,91.70
2018-11-06T00:42:20.091Z,92.10
2018-11-06T00:44:52.438Z,92.20
2018-11-06T00:47:24.811Z,92.20
2018-11-06T00:49:57.228Z,92.60
2018-11-06T00:52:30.084Z,92.90
2018-11-06T00:55:02.382Z,93.10
2018-11-06T00:57:35.229Z,93.40
2018-11-06T01:00:08.064Z,93.70
2018-11-06T01:02:40.381Z,93.90
2018-11-06T01:05:13.652Z,93.90
2018-11-06T01:07:47.889Z,94.30
2018-11-06T01:10:20.211Z,93.60
2018-11-06T01:12:52.563Z,94.00
2018-11-06T01:15:24.808Z,94.10
2018-11-06T01:17:57.086Z,94.00
2018-11-06T01:20:30.107Z,93.60
2018-11-06T01:23:02.470Z,93.30
2018-11-06T01:25:34.688Z,93.40
2018-11-06T01:28:06.899Z,93.50
2018-11-06T01:30:39.211Z,93.50
2018-11-06T01:33:11.497Z,93.60
2018-11-06T01:35:43.716Z,93.60
2018-11-06T01:38:15.939Z,93.90
2018-11-06T01:40:48.612Z,93.90
2018-11-06T01:43:21.039Z,94.20
2018-11-06T01:45:53.303Z,93.80
2018-11-06T01:48:25.485Z,93.70
2018-11-06T01:50:57.713Z,93.80
2018-11-06T01:53:29.907Z,94.00
2018-11-06T01:56:02.361Z,94.20
2018-11-06T01:58:34.566Z,94.00
2018-11-06T02:01:07.182Z,94.10
2018-11-06T02:03:39.362Z,94.10
2018-11-06T02:06:11.567Z,94.20
2018-11-06T02:08:43.880Z,94.50
2018-11-06T02:11:16.185Z,94.60
2018-11-06T02:13:48.454Z,95.00
2018-11-06T02:16:20.827Z,94.70
2018-11-06T02:18:53.019Z,95.00
2018-11-06T02:21:25.353Z,95.00
2018-11-06T02:23:57.531Z,95.20
2018-11-06T02:26:29.775Z,95.40
2018-11-06T02:29:01.894Z,95.80
2018-11-06T02:31:34.148Z,95.90
2018-11-06T02:34:06.313Z,95.70
2018-11-06T02:36:38.533Z,95.90
2018-11-06T02:39:12.314Z,96.20
2018-11-06T02:41:44.798Z,96.40
2018-11-06T02:44:16.996Z,96.60
2018-11-06T02:46:49.264Z,96.80
2018-11-06T02:49:21.461Z,97.20
2018-11-06T02:51:53.666Z,97.40
2018-11-06T02:54:25.800Z,97.50
2018-11-06T02:56:57.988Z,97.50
2018-11-06T02:59:30.310Z,97.50
2018-11-06T03:02:02.948Z,98.00
2018-11-06T03:04:35.162Z,98.20
2018-11-06T03:07:07.498Z,98.40
2018-11-06T03:09:39.625Z,98.70
2018-11-06T03:12:11.800Z,98.70
2018-11-06T03:14:44.006Z,99.20
2018-11-06T03:17:16.294Z,99.30
2018-11-06T03:19:48.500Z,99.40
2018-11-06T03:22:20.872Z,99.50
2018-11-06T03:24:53.095Z,99.40
2018-11-06T03:27:25.313Z,99.60
2018-11-06T03:29:57.411Z,99.60
2018-11-06T03:32:29.659Z,99.80
2018-11-06T03:35:01.837Z,99.90
2018-11-06T03:37:34.016Z,99.90
2018-11-06T03:40:06.240Z,99.90
2018-11-06T03:42:40.094Z,99.90
2018-11-06T03:45:13.134Z,99.90
2018-11-06T03:47:45.426Z,99.90
2018-11-06T03:50:17.540Z,99.90
2018-11-06T03:52:49.723Z,99.90
2018-11-06T03:55:21.884Z,99.90
2018-11-06T03:57:54.603Z,99.90
2018-11-06T04:00:26.756Z,99.90
2018-11-06T04:02:59.222Z,99.90
2018-11-06T04:05:31.374Z,99.90
2018-11-06T04:08:03.675Z,99.90
2018-11-06T04:10:35.912Z,99.90
2018-11-06T04:13:08.166Z,99.90
2018-11-06T04:15:40.340Z,99.90
2018-11-06T04:18:12.498Z,99.90
2018-11-06T04:20:44.703Z,99.90
2018-11-06T04:23:17.192Z,99.90
2018-11-06T04:25:49.328Z,99.90
2018-11-06T04:28:21.513Z,99.90
2018-11-06T04:30:53.698Z,99.90
2018-11-06T04:33:25.899Z,99.90
2018-11-06T04:35:58.029Z,99.90
2018-11-06T04:38:30.413Z,99.90
2018-11-06T04:41:02.534Z,99.90
2018-11-06T04:43:34.968Z,99.90
2018-11-06T04:46:07.258Z,99.90
2018-11-06T04:48:39.525Z,99.90
2018-11-06T04:51:11.616Z,99.90
2018-11-06T04:53:43.907Z,99.90
2018-11-06T04:56:16.022Z,99.90
2018-11-06T04:58:48.202Z,99.90
2018-11-06T05:01:20.330Z,99.90
2018-11-06T05:03:52.657Z,99.90
2018-11-06T05:06:24.773Z,99.90
2018-11-06T05:08:57.043Z,99.90
2018-11-06T05:11:29.177Z,99.90
2018-11-06T05:14:01.359Z,99.90
2018-11-06T05:16:33.510Z,99.90
2018-11-06T05:19:05.687Z,99.90
2018-11-06T05:21:37.845Z,99.90
2018-11-06T05:24:10.182Z,99.90
2018-11-06T05:26:42.294Z,99.90
2018-11-06T05:29:14.444Z,99.90
2018-11-06T05:31:46.634Z,99.90
2018-11-06T05:34:18.902Z,99.90
2018-11-06T05:36:51.479Z,99.90
2018-11-06T05:39:23.774Z,99.90
2018-11-06T05:41:55.961Z,99.90
2018-11-06T05:44:28.405Z,99.90
2018-11-06T05:47:00.523Z,99.90
2018-11-06T05:49:32.703Z,99.90
2018-11-06T05:52:04.832Z,99.90
2018-11-06T05:54:37.134Z,99.90
2018-11-06T05:57:09.245Z,99.90
2018-11-06T05:59:41.466Z,99.90
2018-11-06T06:02:13.657Z,99.90
2018-11-06T06:04:46.329Z,99.90
2018-11-06T06:07:18.478Z,99.90
2018-11-06T06:09:50.770Z,99.90
2018-11-06T06:12:22.931Z,99.90
2018-11-06T06:14:55.089Z,99.90
2018-11-06T06:17:27.245Z,99.90
2018-11-06T06:19:59.416Z,99.90
2018-11-06T06:22:31.645Z,99.90
2018-11-06T06:25:04.269Z,99.90
2018-11-06T06:27:36.392Z,99.90
2018-11-06T06:30:10.860Z,99.90
2018-11-06T06:32:42.975Z,99.90
2018-11-06T06:35:15.217Z,99.90
2018-11-06T06:37:47.396Z,99.90
2018-11-06T06:40:20.040Z,99.90
2018-11-06T06:42:52.202Z,99.90
2018-11-06T06:45:24.411Z,99.90
2018-11-06T06:47:56.607Z,99.90
2018-11-06T06:50:28.810Z,99.90
2018-11-06T06:53:00.945Z,99.90
2018-11-06T06:55:33.220Z,99.90
2018-11-06T06:58:05.407Z,99.90
2018-11-06T07:00:37.662Z,99.90
2018-11-06T07:03:09.894Z,99.90
2018-11-06T07:05:42.132Z,99.90
2018-11-06T07:08:14.291Z,99.90
2018-11-06T07:10:46.590Z,99.90
2018-11-06T07:13:18.738Z,99.90
2018-11-06T07:15:50.980Z,99.90
2018-11-06T07:18:23.155Z,99.90
2018-11-06T07:20:55.424Z,99.90
2018-11-06T07:23:27.572Z,99.90
2018-11-06T07:25:59.921Z,99.90
2018-11-06T07:28:32.082Z,99.90
2018-11-06T07:31:04.376Z,99.90
2018-11-06T07:33:36.500Z,99.90
2018-11-06T07:36:08.771Z,99.90
2018-11-06T07:38:40.892Z,99.90
2018-11-06T07:41:13.332Z,99.90
2018-11-06T07:43:45.442Z,99.90
2018-11-06T07:46:18.371Z,99.90
2018-11-06T07:48:50.462Z,99.90
2018-11-06T07:51:22.662Z,99.90
2018-11-06T07:53:54.738Z,99.90
2018-11-06T07:56:28.072Z,99.90
2018-11-06T07:59:00.156Z,99.90
2018-11-06T08:01:32.331Z,99.90
2018-11-06T08:04:04.547Z,99.90
2018-11-06T08:06:36.903Z,99.90
2018-11-06T08:09:11.991Z,99.90
2018-11-06T08:11:44.246Z,99.90
2018-11-06T08:14:16.422Z,99.90
2018-11-06T08:16:48.647Z,99.90
2018-11-06T08:19:21.021Z,99.90
2018-11-06T08:21:53.238Z,99.90
2018-11-06T08:24:25.305Z,99.90
2018-11-06T08:26:57.848Z,99.90
2018-11-06T08:29:29.986Z,99.90
2018-11-06T08:32:02.653Z,99.90
2018-11-06T08:34:34.532Z,99.90
2018-11-06T08:37:06.770Z,99.90
2018-11-06T08:39:38.974Z,99.90
2018-11-06T08:42:11.238Z,99.90
2018-11-06T08:44:43.858Z,99.90
2018-11-06T08:47:16.095Z,99.90
2018-11-06T08:49:48.242Z,99.90
2018-11-06T08:52:20.455Z,99.90
2018-11-06T08:54:52.625Z,99.90
2018-11-06T08:57:24.864Z,99.90
2018-11-06T08:59:57.068Z,99.90
2018-11-06T09:02:29.385Z,99.90
2018-11-06T09:05:01.591Z,99.90
2018-11-06T09:07:34.282Z,99.90
2018-11-06T09:10:06.684Z,99.90
2018-11-06T09:12:39.443Z,99.90
2018-11-06T09:15:14.061Z,99.90
2018-11-06T09:17:46.357Z,99.90
2018-11-06T09:20:18.958Z,99.90
2018-11-06T09:22:51.111Z,99.90
2018-11-06T09:25:23.286Z,99.90
2018-11-06T09:27:55.810Z,99.90
2018-11-06T09:30:28.007Z,99.90
2018-11-06T09:33:00.251Z,99.90
2018-11-06T09:35:32.350Z,99.90
2018-11-06T09:38:04.681Z,99.90
2018-11-06T09:40:36.815Z,99.90
2018-11-06T09:43:09.873Z,99.90
2018-11-06T09:45:42.108Z,99.90
2018-11-06T09:48:14.609Z,99.90
2018-11-06T09:50:46.760Z,99.90
2018-11-06T09:53:18.982Z,99.90
2018-11-06T09:55:51.068Z,99.90
2018-11-06T09:58:23.235Z,99.90
2018-11-06T10:00:55.436Z,99.90
2018-11-06T10:03:27.669Z,99.90
2018-11-06T10:05:59.829Z,99.90
2018-11-06T10:08:32.291Z,99.90
2018-11-06T10:11:04.518Z,99.90
2018-11-06T10:13:36.816Z,99.90
2018-11-06T10:16:09.158Z,99.90
2018-11-06T10:18:41.747Z,99.90
2018-11-06T10:21:14.005Z,99.90
2018-11-06T10:23:46.317Z,99.90
2018-11-06T10:26:18.411Z,99.90
2018-11-06T10:28:51.516Z,99.90
2018-11-06T10:31:23.647Z,99.90
2018-11-06T10:33:55.960Z,99.90
2018-11-06T10:36:28.108Z,99.90
2018-11-06T10:39:00.335Z,99.90
2018-11-06T10:41:32.476Z,99.90
2018-11-06T10:44:04.673Z,99.90
2018-11-06T10:46:36.801Z,99.90
2018-11-06T10:49:10.957Z,99.90
2018-11-06T10:51:43.154Z,99.90
2018-11-06T10:54:15.479Z,99.90
2018-11-06T10:56:47.651Z,99.90
2018-11-06T10:59:19.850Z,99.90
2018-11-06T11:01:56.317Z,99.90
2018-11-06T11:04:29.783Z,99.90
2018-11-06T11:07:01.925Z,99.90
2018-11-06T11:09:34.314Z,99.90
2018-11-06T11:12:06.438Z,99.90
2018-11-06T11:14:38.634Z,99.90
2018-11-06T11:17:10.750Z,99.90
2018-11-06T11:19:43.027Z,99.90
2018-11-06T11:22:15.186Z,99.90
2018-11-06T11:24:47.476Z,99.90
2018-11-06T11:27:19.745Z,99.90
2018-11-06T11:29:52.074Z,99.90
2018-11-06T11:32:24.258Z,99.90
2018-11-06T11:34:56.504Z,99.90
2018-11-06T11:37:29.154Z,99.90
2018-11-06T11:40:01.423Z,99.90
2018-11-06T11:42:33.565Z,99.90
2018-11-06T11:45:05.823Z,99.90
2018-11-06T11:47:37.995Z,99.90
2018-11-06T11:50:11.947Z,99.90
2018-11-06T11:52:44.216Z,99.90
2018-11-06T11:55:16.471Z,99.90
2018-11-06T11:57:48.596Z,99.90
2018-11-06T12:00:22.031Z,99.90
2018-11-06T12:02:54.130Z,99.90
2018-11-06T12:05:26.335Z,99.90
2018-11-06T12:07:58.443Z,99.90
2018-11-06T12:10:31.001Z,99.90
2018-11-06T12:13:03.302Z,99.90
2018-11-06T12:15:35.614Z,99.90
2018-11-06T12:18:07.839Z,99.90
2018-11-06T12:20:40.266Z,99.90
2018-11-06T12:23:12.455Z,99.90
2018-11-06T12:25:44.799Z,99.90
2018-11-06T12:28:16.907Z,99.90
2018-11-06T12:30:49.244Z,99.90
2018-11-06T12:33:21.447Z,99.90
2018-11-06T12:35:53.755Z,99.90
2018-11-06T12:38:25.883Z,99.90
2018-11-06T12:40:58.104Z,99.90
2018-11-06T12:43:30.452Z,99.90
2018-11-06T12:46:02.720Z,99.90
2018-11-06T12:48:34.931Z,99.90
2018-11-06T12:51:07.649Z,99.90
2018-11-06T12:53:39.749Z,99.90
2018-11-06T12:56:11.992Z,99.90
2018-11-06T12:58:44.201Z,99.90
2018-11-06T13:01:16.431Z,99.90
2018-11-06T13:03:48.695Z,99.90
2018-11-06T13:06:20.933Z,99.90
2018-11-06T13:08:53.033Z,99.90
2018-11-06T13:11:25.432Z,99.90
2018-11-06T13:13:57.598Z,99.90
2018-11-06T13:16:29.828Z,99.90
2018-11-06T13:19:02.281Z,99.90
2018-11-06T13:21:34.605Z,99.90
2018-11-06T13:24:06.772Z,99.90
2018-11-06T13:26:39.151Z,99.90
2018-11-06T13:29:11.386Z,99.90
2018-11-06T13:31:44.360Z,99.90
2018-11-06T13:34:17.444Z,99.90
2018-11-06T13:36:49.734Z,99.90
2018-11-06T13:39:21.900Z,99.90
2018-11-06T13:41:54.138Z,99.90
2018-11-06T13:44:26.695Z,99.90
2018-11-06T13:46:58.908Z,99.90
2018-11-06T13:49:31.056Z,99.90
2018-11-06T13:52:03.774Z,99.90
2018-11-06T13:54:36.096Z,99.90
2018-11-06T13:57:08.838Z,99.90
2018-11-06T13:59:41.023Z,99.90
2018-11-06T14:02:14.516Z,99.90
2018-11-06T14:04:46.966Z,99.90
2018-11-06T14:07:19.452Z,99.90
2018-11-06T14:09:51.847Z,99.90
2018-11-06T14:12:24.786Z,99.90
2018-11-06T14:14:56.983Z,99.90
2018-11-06T14:17:29.477Z,99.90
2018-11-06T14:20:01.665Z,99.90
2018-11-06T14:22:37.927Z,99.90
2018-11-06T14:25:10.787Z,99.90
2018-11-06T14:27:43.225Z,99.90
2018-11-06T14:30:20.183Z,99.90
2018-11-06T14:32:52.584Z,99.90
2018-11-06T14:35:26.064Z,99.90
2018-11-06T14:37:59.436Z,99.90
2018-11-06T14:40:31.747Z,99.90
2018-11-06T14:43:04.355Z,99.90
2018-11-06T14:45:38.733Z,99.90
2018-11-06T14:48:11.108Z,99.90
2018-11-06T14:50:43.344Z,99.90
2018-11-06T14:53:15.846Z,99.90
2018-11-06T14:55:48.329Z,99.90
2018-11-06T14:58:20.620Z,99.90
2018-11-06T15:00:52.986Z,99.90
2018-11-06T15:03:25.432Z,99.90
2018-11-06T15:05:58.299Z,99.90
2018-11-06T15:08:31.556Z,99.90
2018-11-06T15:11:04.890Z,97.50
2018-11-06T15:13:37.894Z,97.60
2018-11-06T15:16:10.165Z,97.90
2018-11-06T15:18:42.500Z,98.70
2018-11-06T15:21:15.117Z,98.70
2018-11-06T15:23:47.503Z,98.40
2018-11-06T15:26:19.746Z,97.90
2018-11-06T15:28:52.547Z,96.30
2018-11-06T15:31:24.929Z,95.20
2018-11-06T15:33:57.426Z,94.40
2018-11-06T15:36:29.617Z,93.80
2018-11-06T15:39:05.475Z,93.70
2018-11-06T15:41:38.557Z,93.20
2018-11-06T15:44:11.934Z,92.20
2018-11-06T15:46:44.246Z,91.50
2018-11-06T15:49:17.442Z,91.90
2018-11-06T15:51:49.865Z,91.70
2018-11-06T15:54:22.308Z,90.20
2018-11-06T15:56:54.553Z,89.20
2018-11-06T15:59:26.900Z,84.60
2018-11-06T16:01:59.097Z,85.20
2018-11-06T16:04:32.763Z,85.10
2018-11-06T16:07:05.496Z,83.30
2018-11-06T16:09:37.905Z,82.70
2018-11-06T16:12:10.274Z,81.80
2018-11-06T16:14:43.798Z,81.80
2018-11-06T16:17:16.055Z,80.00
2018-11-06T16:19:48.462Z,80.00
2018-11-06T16:22:21.347Z,76.80
2018-11-06T16:24:53.799Z,76.10
2018-11-06T16:27:26.090Z,74.20
2018-11-06T16:29:58.649Z,74.40
2018-11-06T16:32:30.954Z,76.10
2018-11-06T16:35:03.466Z,75.20
2018-11-06T16:37:35.724Z,74.10
2018-11-06T16:40:08.103Z,72.10
2018-11-06T16:42:40.892Z,72.20
2018-11-06T16:45:16.319Z,72.60
2018-11-06T16:47:49.402Z,73.40
2018-11-06T16:50:22.949Z,72.90
2018-11-06T16:52:55.217Z,72.60
2018-11-06T16:55:30.357Z,71.90
2018-11-06T16:58:02.565Z,72.80
2018-11-06T17:00:34.838Z,73.20
2018-11-06T17:03:07.305Z,74.70
2018-11-06T17:05:39.658Z,74.00
2018-11-06T17:08:11.834Z,76.40
2018-11-06T17:10:44.265Z,74.90
2018-11-06T17:13:16.635Z,72.80
2018-11-06T17:15:49.078Z,71.30
2018-11-06T17:18:21.312Z,70.80
2018-11-06T17:20:53.610Z,68.20
2018-11-06T17:23:26.787Z,68.30
2018-11-06T17:26:00.080Z,67.50
2018-11-06T17:28:34.359Z,67.90
2018-11-06T17:31:06.843Z,66.60
2018-11-06T17:33:39.085Z,65.30
2018-11-06T17:36:11.576Z,66.80
2018-11-06T17:38:44.333Z,65.30
2018-11-06T17:41:19.531Z,64.50
2018-11-06T17:43:51.708Z,65.20
2018-11-06T17:46:24.035Z,64.40
2018-11-06T17:48:56.913Z,64.20
2018-11-06T17:51:29.278Z,63.80
2018-11-06T17:54:01.729Z,64.20
2018-11-06T17:56:34.246Z,61.70
2018-11-06T17:59:06.962Z,62.20
2018-11-06T18:01:39.302Z,62.50
2018-11-06T18:04:11.837Z,64.20
2018-11-06T18:06:45.281Z,62.00
2018-11-06T18:09:17.424Z,62.60
2018-11-06T18:11:49.723Z,62.10
2018-11-06T18:14:22.978Z,59.80
2018-11-06T18:16:55.658Z,59.90
2018-11-06T18:19:28.078Z,59.80
2018-11-06T18:22:00.337Z,59.60
2018-11-06T18:24:33.331Z,57.70
2018-11-06T18:27:05.564Z,60.50
2018-11-06T18:29:38.705Z,60.10
2018-11-06T18:32:11.048Z,59.60
2018-11-06T18:34:43.497Z,56.40
2018-11-06T18:37:15.983Z,57.60
2018-11-06T18:39:48.236Z,58.90
2018-11-06T18:42:20.644Z,61.20
2018-11-06T18:44:52.800Z,60.80
2018-11-06T18:47:25.188Z,61.60
2018-11-06T18:49:57.424Z,61.00
2018-11-06T18:52:29.689Z,60.90
2018-11-06T18:55:02.508Z,59.80
2018-11-06T18:57:34.860Z,58.30
2018-11-06T19:00:09.260Z,58.70
2018-11-06T19:02:41.646Z,58.10
2018-11-06T19:05:13.818Z,57.70
2018-11-06T19:07:46.244Z,57.60
2018-11-06T19:10:18.847Z,56.20
2018-11-06T19:12:51.091Z,57.30
2018-11-06T19:15:24.479Z,55.80
2018-11-06T19:17:56.977Z,55.80
2018-11-06T19:20:29.235Z,55.30
2018-11-06T19:23:01.512Z,58.00
2018-11-06T19:25:33.680Z,58.10
2018-11-06T19:28:05.964Z,56.30
2018-11-06T19:30:38.249Z,57.40
2018-11-06T19:33:10.617Z,56.50
2018-11-06T19:35:47.728Z,57.00
2018-11-06T19:38:20.062Z,56.90
2018-11-06T19:40:52.991Z,56.90
2018-11-06T19:43:25.160Z,57.00
2018-11-06T19:45:57.818Z,57.60
2018-11-06T19:48:30.999Z,57.90
2018-11-06T19:51:04.577Z,58.50
2018-11-06T19:53:36.903Z,58.00
2018-11-06T19:56:10.695Z,57.60
2018-11-06T19:58:43.160Z,58.30
2018-11-06T20:01:15.494Z,57.20
2018-11-06T20:03:47.986Z,56.30
2018-11-06T20:06:20.318Z,57.10
2018-11-06T20:08:54.188Z,56.40
2018-11-06T20:11:26.396Z,56.10
2018-11-06T20:13:58.628Z,55.30
2018-11-06T20:16:31.031Z,55.70
2018-11-06T20:19:03.459Z,55.70
2018-11-06T20:21:36.602Z,55.50
2018-11-06T20:24:10.215Z,54.10
2018-11-06T20:26:42.606Z,54.90
2018-11-06T20:29:14.821Z,54.70
2018-11-06T20:31:47.556Z,54.40
2018-11-06T20:34:19.923Z,54.20
2018-11-06T20:36:52.544Z,54.50
2018-11-06T20:39:25.551Z,55.50
2018-11-06T20:41:57.930Z,55.50
2018-11-06T20:44:30.124Z,55.00
2018-11-06T20:47:02.289Z,56.60
2018-11-06T20:49:35.169Z,58.20
2018-11-06T20:52:08.510Z,59.30
2018-11-06T20:54:41.260Z,59.10
2018-11-06T20:57:13.396Z,59.10
2018-11-06T20:59:45.760Z,60.20
2018-11-06T21:02:19.493Z,59.90
2018-11-06T21:04:52.019Z,59.90
2018-11-06T21:07:25.028Z,59.20
2018-11-06T21:09:58.594Z,59.10
2018-11-06T21:12:30.721Z,60.00
2018-11-06T21:15:07.975Z,59.80
2018-11-06T21:17:40.664Z,60.30
2018-11-06T21:20:16.665Z,61.70
2018-11-06T21:22:49.649Z,60.60
2018-11-06T21:25:23.598Z,61.80
2018-11-06T21:27:56.841Z,62.90
2018-11-06T21:30:29.795Z,62.80
2018-11-06T21:33:02.895Z,63.30
2018-11-06T21:35:36.754Z,63.20
2018-11-06T21:38:09.707Z,63.70
2018-11-06T21:40:45.544Z,64.60
2018-11-06T21:43:18.063Z,66.50
2018-11-06T21:45:51.351Z,66.50
2018-11-06T21:48:24.193Z,66.50
2018-11-06T21:50:57.207Z,66.00
2018-11-06T21:53:30.012Z,65.80
2018-11-06T21:56:02.855Z,66.30
2018-11-06T21:58:36.177Z,67.30
2018-11-06T22:01:10.858Z,67.00
2018-11-06T22:03:43.935Z,66.50
2018-11-06T22:06:16.675Z,67.60
2018-11-06T22:08:49.716Z,67.60
2018-11-06T22:11:23.658Z,68.00
2018-11-06T22:13:56.788Z,68.10
2018-11-06T22:16:29.579Z,68.80
2018-11-06T22:19:02.385Z,69.50
2018-11-06T22:21:34.804Z,68.70
2018-11-06T22:24:07.167Z,69.10
2018-11-06T22:26:40.172Z,68.60
2018-11-06T22:29:12.821Z,68.70
2018-11-06T22:31:46.375Z,68.60
2018-11-06T22:34:19.358Z,68.60
2018-11-06T22:36:52.206Z,69.00
2018-11-06T22:39:25.176Z,69.30
2018-11-06T22:41:58.016Z,69.20
2018-11-06T22:44:30.282Z,69.40
2018-11-06T22:47:02.576Z,70.40
2018-11-06T22:49:34.768Z,70.70
2018-11-06T22:52:07.404Z,72.00
2018-11-06T22:54:40.614Z,71.90
2018-11-06T22:57:13.482Z,73.80
2018-11-06T22:59:47.618Z,72.10
2018-11-06T23:02:20.799Z,71.70
2018-11-06T23:04:53.650Z,72.80
2018-11-06T23:07:31.039Z,73.60
2018-11-06T23:10:13.350Z,73.70
2018-11-06T23:12:46.247Z,74.50
2018-11-06T23:15:19.246Z,74.50
2018-11-06T23:17:52.312Z,74.80
2018-11-06T23:20:25.133Z,76.80
2018-11-06T23:22:58.188Z,77.20
2018-11-06T23:25:30.708Z,77.60
2018-11-06T23:28:03.719Z,77.50
2018-11-06T23:30:36.475Z,78.10
2018-11-06T23:33:09.376Z,78.70
2018-11-06T23:35:41.807Z,79.40
2018-11-06T23:38:14.312Z,80.40
2018-11-06T23:40:47.532Z,80.90
2018-11-06T23:43:20.580Z,81.40
2018-11-06T23:45:53.461Z,81.70
2018-11-06T23:48:26.402Z,81.90
2018-11-06T23:50:58.697Z,82.20
2018-11-06T23:53:31.297Z,81.80
2018-11-06T23:56:03.483Z,82.50
2018-11-06T23:58:35.835Z,81.70
